If you wish to contribute or participate in the discussions about articles you are invited to join SKYbrary as a registered user

 Actions

Kryvyi Rih International Airport

From SKYbrary Wiki

UKDR
Airport
ICAO: UKDR
Summary
Name Kryvyi Rih International Airport
Region Europe
Territory Ukraine UA.gif
Location Kryvyi Rih
Serving
Coordinates 48° 2' 39.13" N, 33° 12' 28.93" E
Runways
Designator Length Width Surface ROPS
18/36 2500 m8,202.1 ft
42 m137.795 ft
CON /


METAR
Observation UKDR 221930Z 22001MPS CAVOK 10/05 Q1015 R36/09//70 NOSIG
Station Krivyy Rih / Dnipropetrovs'k
Date/Time 22 September 2019 19:30:00
Wind direction 220°
Wind speed kts
Lowest cloud amount clouds and visibility OK
Temperature 10°C
Dew point 5°C
Humidity 71%
QNH 1015 hPa
Weather condition n/a

Kryvyi Rih/Lozovatka International Airport (IATA: KWG) is an airport near Kryvyi Rih, Ukraine. It is located 4.2 km west of the city of Lozovatka, and 17.5 km northwest of the city of Kryvyi Rih.